Crystal Mountain, Washington
Current Conditions -  °F | °C
As of 5:53 PM on Friday 28 Nov 2014 (Local Time) from KRNT Reporting Station
Overcast Overcast  
Wind Chill: 39°   Ceiling: 4400
Heat Index: 39°   Visibility: 10mi
Dew Point: 36°   Wind: 0mph
Humidity: 89%   Direction: NA
Pressure: 29.5"   Gusts: NA
Location:  47.1782°N, 121.641°W
Report Text: KRNT 290153Z 00000KT 10SM OVC044 04/02 A2950 RMK AO2 RAE52 SLP993 P0002 T00390022
Loading
Personal Weather Stations






























Interactive Weather Map New forecast layout! Learn more

10-Day Weather Forecast

Advertisements
Track Severe Weather on mobile